Time;durP1;ratioP1;P1;durP2;ratioP2;P2;SDS_P1;SDS_P2;PMS_P1;PMS_P2;Temp;Humidity;BMP_temperature;BMP_pressure;BME280_temperature;BME280_humidity;BME280_pressure;Samples;Min_cycle;Max_cycle;Signal;HPM_P1;HPM_P2
2022/04/17 00:00:14;;;;;;;;;;;;;;;20.22;59.55;98899.66;2083722;28;20039;-48
2022/04/17 00:01:15;;;;;;;;;;;;;;;20.22;59.37;98897.78;2086669;28;20378;-50
2022/04/17 00:02:16;;;;;;;;;;;;;;;20.21;59.29;98896.13;2085581;28;19920;-50
2022/04/17 00:03:17;;;;;;;;;;;;;;;20.23;59.36;98901.31;2087415;28;19924;-51
2022/04/17 00:04:19;;;;;;;;;;;;;;;20.22;59.32;98889.69;2081842;28;19920;-50
2022/04/17 00:05:21;;;;;;;;;;;;;;;20.22;59.67;98897.78;2082025;28;19986;-51
2022/04/17 00:06:21;;;;;;;;;;;;;;;20.20;59.64;98889.09;2088761;28;20011;-49
2022/04/17 00:07:23;;;;;;;;;;;;;;;20.19;59.54;98890.13;2087368;28;19931;-51
2022/04/17 00:08:23;;;;;;;;;;;;;;;20.20;59.58;98888.28;2090943;28;19931;-48
2022/04/17 00:09:25;;;;;;;;;;;;;;;20.21;59.43;98884.53;2087025;28;20443;-50
2022/04/17 00:10:25;;;;;;;;;;;;;;;20.20;59.47;98885.59;2087648;28;19924;-49
2022/04/17 00:11:27;;;;;;;;;;;;;;;20.19;59.33;98879.34;2086783;28;19931;-50
2022/04/17 00:12:27;;;;;;;;;;;;;;;20.20;59.46;98886.41;2083811;28;20054;-50
2022/04/17 00:13:29;;;;;;;;;;;;;;;20.20;59.46;98885.59;2083750;28;20571;-50
2022/04/17 00:14:29;;;;;;;;;;;;;;;20.19;59.22;98882.03;2083872;28;19928;-49
2022/04/17 00:15:31;;;;;;;;;;;;;;;20.19;59.29;98892.00;2084556;28;20464;-48
2022/04/17 00:16:31;;;;;;;;;;;;;;;20.18;59.36;98880.41;2085416;28;19936;-51
2022/04/17 00:17:33;;;;;;;;;;;;;;;20.18;59.57;98885.78;2086497;28;20334;-51
2022/04/17 00:18:34;;;;;;;;;;;;;;;20.20;59.37;98885.59;2087682;28;19924;-48
2022/04/17 00:19:36;;;;;;;;;;;;;;;20.19;59.17;98881.22;2085446;28;19928;-49
2022/04/17 00:20:38;;;;;;;;;;;;;;;20.21;59.29;98895.31;2088785;28;19920;-49
2022/04/17 00:21:40;;;;;;;;;;;;;;;20.18;59.66;98887.66;2085091;28;19931;-52
2022/04/17 00:22:40;;;;;;;;;;;;;;;20.18;59.65;98884.97;2089934;28;20007;-49
2022/04/17 00:23:44;;;;;;;;;;;;;;;20.18;59.29;98891.16;2082167;28;20054;-49
2022/04/17 00:24:45;;;;;;;;;;;;;;;20.18;59.46;98888.47;2087749;28;19932;-49
2022/04/17 00:25:47;;;;;;;;;;;;;;;20.17;59.32;98889.53;2082465;28;19954;-49
2022/04/17 00:26:48;;;;;;;;;;;;;;;20.18;59.40;98885.78;2084308;28;19924;-48
2022/04/17 00:27:49;;;;;;;;;;;;;;;20.18;59.36;98891.16;2085840;28;19921;-49
2022/04/17 00:28:49;;;;;;;;;;;;;;;20.18;59.26;98890.34;2088825;28;19928;-50
2022/04/17 00:29:51;;;;;;;;;;;;;;;20.18;59.46;98883.09;2085954;28;20207;-51
2022/04/17 00:30:51;;;;;;;;;;;;;;;20.18;59.31;98880.41;2085237;28;19978;-52
2022/04/17 00:31:53;;;;;;;;;;;;;;;20.17;59.19;98885.97;2086602;28;19924;-50
2022/04/17 00:32:54;;;;;;;;;;;;;;;20.16;59.50;98878.94;2084561;28;19927;-49
2022/04/17 00:33:55;;;;;;;;;;;;;;;20.18;59.67;98884.97;2084993;28;19947;-50
2022/04/17 00:34:57;;;;;;;;;;;;;;;20.16;59.38;98885.16;2083730;28;20725;-52
2022/04/17 00:35:59;;;;;;;;;;;;;;;20.16;59.33;98874.38;2080807;28;20367;-49
2022/04/17 00:37:00;;;;;;;;;;;;;;;20.17;59.39;98872.50;2084835;28;19995;-50
2022/04/17 00:38:02;;;;;;;;;;;;;;;20.16;59.46;98860.09;2083062;28;19960;-48
2022/04/17 00:39:03;;;;;;;;;;;;;;;20.15;59.15;98870.03;2083394;28;19921;-49
2022/04/17 00:40:05;;;;;;;;;;;;;;;20.15;59.32;98859.28;2083734;28;20011;-49
2022/04/17 00:41:06;;;;;;;;;;;;;;;20.15;59.49;98851.19;2085402;28;20069;-52
2022/04/17 00:42:09;;;;;;;;;;;;;;;20.15;59.10;98853.06;2082292;28;20807;-51
2022/04/17 00:43:17;;;;;;;;;;;;;;;20.14;59.21;98860.28;2088908;28;19975;-51
2022/04/17 00:44:19;;;;;;;;;;;;;;;20.15;59.33;98863.84;2084148;28;20361;-51
2022/04/17 00:45:20;;;;;;;;;;;;;;;20.13;59.39;98845.19;2080666;28;19973;-48
2022/04/17 00:46:21;;;;;;;;;;;;;;;20.13;59.27;98855.94;2082854;28;20406;-51
2022/04/17 00:47:22;;;;;;;;;;;;;;;20.14;59.47;98851.38;2084577;28;19974;-48
2022/04/17 00:48:23;;;;;;;;;;;;;;;20.14;59.25;98862.97;2088518;28;19932;-50
2022/04/17 00:49:24;;;;;;;;;;;;;;;20.13;59.17;98853.25;2085912;28;19932;-49
2022/04/17 00:50:27;;;;;;;;;;;;;;;20.13;59.49;98864.03;2084208;28;19924;-48
2022/04/17 00:51:28;;;;;;;;;;;;;;;20.13;59.45;98853.25;2086898;28;19965;-51
2022/04/17 00:52:30;;;;;;;;;;;;;;;20.13;59.15;98858.63;2083163;28;20321;-52
2022/04/17 00:53:30;;;;;;;;;;;;;;;20.12;59.10;98859.69;2080741;28;20370;-52
2022/04/17 00:54:32;;;;;;;;;;;;;;;20.12;59.08;98857.00;2082265;28;19924;-51
2022/04/17 00:55:33;;;;;;;;;;;;;;;20.11;59.21;98857.19;2088100;28;20557;-49
2022/04/17 00:56:35;;;;;;;;;;;;;;;20.12;59.31;98858.88;2085346;28;19955;-48
2022/04/17 00:57:37;;;;;;;;;;;;;;;20.12;59.54;98853.47;2084180;28;19956;-49
2022/04/17 00:58:38;;;;;;;;;;;;;;;20.12;59.47;98861.56;2086194;28;20019;-51
2022/04/17 00:59:41;;;;;;;;;;;;;;;20.13;59.18;98849.75;2086734;28;19925;-49
2022/04/17 01:00:42;;;;;;;;;;;;;;;20.11;59.35;98852.63;2086275;28;20019;-48
2022/04/17 01:01:43;;;;;;;;;;;;;;;20.11;59.31;98858.00;2086226;28;19928;-49
2022/04/17 01:02:44;;;;;;;;;;;;;;;20.12;59.29;98850.78;2084321;28;19989;-49
2022/04/17 01:03:45;;;;;;;;;;;;;;;20.09;59.23;98865.50;2085572;28;19940;-49
2022/04/17 01:04:46;;;;;;;;;;;;;;;20.12;59.31;98865.06;2084163;28;20571;-50
2022/04/17 01:05:49;;;;;;;;;;;;;;;20.11;59.27;98859.88;2082532;28;19928;-51
2022/04/17 01:06:49;;;;;;;;;;;;;;;20.12;59.10;98870.47;2080267;28;19929;-50
2022/04/17 01:07:52;;;;;;;;;;;;;;;20.10;59.18;98869.81;2082099;28;19928;-51
2022/04/17 01:08:53;;;;;;;;;;;;;;;20.07;59.23;98864.88;2084867;28;19977;-53
2022/04/17 01:09:56;;;;;;;;;;;;;;;20.08;59.12;98864.63;2081946;28;19928;-51
2022/04/17 01:10:57;;;;;;;;;;;;;;;20.07;59.02;98862.16;2084681;28;20006;-49
2022/04/17 01:11:59;;;;;;;;;;;;;;;20.09;59.17;98870.88;2084389;28;20490;-51
2022/04/17 01:13:01;;;;;;;;;;;;;;;20.07;59.18;98863.00;2086276;28;20053;-50
2022/04/17 01:14:05;;;;;;;;;;;;;;;20.10;59.38;98867.13;2082667;28;20555;-48
2022/04/17 01:15:06;;;;;;;;;;;;;;;20.07;59.33;98867.56;2085444;28;19920;-49
2022/04/17 01:16:08;;;;;;;;;;;;;;;20.05;59.34;98859.66;2084980;28;20585;-49
2022/04/17 01:17:09;;;;;;;;;;;;;;;20.04;59.46;98868.78;2084776;28;19967;-48
2022/04/17 01:18:11;;;;;;;;;;;;;;;20.05;59.25;98862.38;2087335;28;19939;-49
2022/04/17 01:19:12;;;;;;;;;;;;;;;20.05;59.47;98858.84;2083706;28;20439;-51
2022/04/17 01:20:14;;;;;;;;;;;;;;;20.04;59.51;98863.41;2086841;28;19929;-49
2022/04/17 01:21:19;;;;;;;;;;;;;;;20.05;59.38;98867.75;2084708;28;19932;-52
2022/04/17 01:22:20;;;;;;;;;;;;;;;20.05;59.44;98864.22;2087423;28;19924;-50
2022/04/17 01:27:20;;;;;;;;;;;;;;;20.03;59.18;98863.59;2083429;28;19921;-51
2022/04/17 01:28:21;;;;;;;;;;;;;;;20.03;59.41;98867.16;2085265;28;19977;-49
2022/04/17 01:29:22;;;;;;;;;;;;;;;20.03;59.35;98864.47;2082009;28;19932;-52
2022/04/17 01:30:24;;;;;;;;;;;;;;;20.02;59.46;98861.97;2081397;28;20213;-51
2022/04/17 01:31:27;;;;;;;;;;;;;;;20.01;59.17;98861.13;2085798;28;19925;-50
2022/04/17 01:32:28;;;;;;;;;;;;;;;20.00;59.59;98862.19;2086700;28;20012;-51
2022/04/17 01:33:29;;;;;;;;;;;;;;;20.01;59.42;98863.00;2082333;28;19931;-50
2022/04/17 01:34:31;;;;;;;;;;;;;;;20.00;59.17;98859.50;2085776;28;19928;-49
2022/04/17 01:35:32;;;;;;;;;;;;;;;20.00;59.64;98855.94;2084746;28;19958;-49
2022/04/17 01:36:35;;;;;;;;;;;;;;;19.99;59.16;98857.00;2085527;28;19950;-49
2022/04/17 01:37:36;;;;;;;;;;;;;;;20.00;59.65;98861.34;2086924;28;19929;-50
2022/04/17 01:38:38;;;;;;;;;;;;;;;19.99;59.22;98852.44;2086735;28;20596;-49
2022/04/17 01:39:40;;;;;;;;;;;;;;;19.99;59.48;98857.00;2083083;28;20900;-50
2022/04/17 01:40:41;;;;;;;;;;;;;;;19.99;59.47;98849.75;2084554;28;19971;-49
2022/04/17 01:41:43;;;;;;;;;;;;;;;20.00;59.52;98855.94;2082576;28;19924;-48
2022/04/17 01:42:44;;;;;;;;;;;;;;;19.99;59.60;98857.81;2084684;28;19935;-50
2022/04/17 01:43:45;;;;;;;;;;;;;;;19.99;59.21;98857.00;2089227;28;19935;-49
2022/04/17 01:44:46;;;;;;;;;;;;;;;19.99;59.19;98857.00;2085838;28;19927;-50
2022/04/17 01:45:47;;;;;;;;;;;;;;;19.99;59.40;98859.69;2089081;28;19920;-50
2022/04/17 01:46:48;;;;;;;;;;;;;;;19.98;59.52;98852.66;2084911;28;19931;-49
2022/04/17 01:47:50;;;;;;;;;;;;;;;19.97;59.30;98861.75;2081026;28;21053;-50
2022/04/17 01:48:50;;;;;;;;;;;;;;;19.98;59.49;98858.03;2084659;28;19929;-52
2022/04/17 01:49:52;;;;;;;;;;;;;;;19.96;59.62;98855.53;2081394;28;19963;-49
2022/04/17 01:50:52;;;;;;;;;;;;;;;19.96;59.42;98855.53;2082943;28;19928;-48
2022/04/17 01:51:55;;;;;;;;;;;;;;;19.97;59.38;98853.66;2080891;28;19935;-51
2022/04/17 01:52:59;;;;;;;;;;;;;;;19.97;59.42;98853.66;2084454;28;19921;-51
2022/04/17 01:54:00;;;;;;;;;;;;;;;19.96;59.54;98852.03;2080298;28;20109;-49
2022/04/17 01:55:01;;;;;;;;;;;;;;;19.96;59.35;98852.03;2086348;28;20309;-50
2022/04/17 01:56:02;;;;;;;;;;;;;;;19.96;59.28;98849.34;2083600;28;19928;-48
2022/04/17 01:57:03;;;;;;;;;;;;;;;19.95;59.54;98850.38;2083429;28;19948;-52
2022/04/17 01:58:05;;;;;;;;;;;;;;;19.94;59.33;98849.53;2084988;28;20826;-49
2022/04/17 01:59:06;;;;;;;;;;;;;;;19.94;59.68;98843.31;2083370;28;19931;-49
2022/04/17 02:00:08;;;;;;;;;;;;;;;19.95;59.59;98845.00;2089015;28;20013;-51
2022/04/17 02:01:09;;;;;;;;;;;;;;;19.94;59.36;98843.31;2086894;28;20976;-49
2022/04/17 02:02:10;;;;;;;;;;;;;;;19.94;59.51;98843.31;2087829;28;19924;-51
2022/04/17 02:03:11;;;;;;;;;;;;;;;19.91;59.22;98844.56;2085409;28;19971;-49
2022/04/17 02:04:12;;;;;;;;;;;;;;;19.93;59.55;98849.75;2085038;28;20481;-49
2022/04/17 02:05:13;;;;;;;;;;;;;;;19.91;59.18;98841.88;2083099;28;20023;-50
2022/04/17 02:06:14;;;;;;;;;;;;;;;19.92;59.64;98840.00;2083904;28;19928;-51
2022/04/17 02:07:17;;;;;;;;;;;;;;;19.90;59.28;98844.78;2085847;28;20056;-49
2022/04/17 02:08:18;;;;;;;;;;;;;;;19.91;59.54;98843.75;2084452;28;19921;-52
2022/04/17 02:09:20;;;;;;;;;;;;;;;19.91;59.30;98846.44;2081558;28;19933;-48
2022/04/17 02:10:21;;;;;;;;;;;;;;;19.89;59.58;98848.50;2082435;28;19927;-49
2022/04/17 02:11:23;;;;;;;;;;;;;;;19.89;59.33;98843.94;2084172;28;19928;-49
2022/04/17 02:12:24;;;;;;;;;;;;;;;19.89;59.34;98849.31;2073093;28;19928;-47
2022/04/17 02:13:25;;;;;;;;;;;;;;;19.88;59.37;98846.84;2078996;28;19930;-50
2022/04/17 02:14:27;;;;;;;;;;;;;;;19.89;59.34;98845.78;2081615;28;19932;-50
2022/04/17 02:15:27;;;;;;;;;;;;;;;19.88;59.69;98861.13;2085208;28;19925;-49
2022/04/17 02:16:29;;;;;;;;;;;;;;;19.89;59.23;98853.88;2087569;28;19924;-48
2022/04/17 02:17:32;;;;;;;;;;;;;;;19.87;59.56;98856.78;2084801;28;19924;-51
2022/04/17 02:18:33;;;;;;;;;;;;;;;19.87;59.45;98848.72;2081214;28;19924;-51
2022/04/17 02:19:35;;;;;;;;;;;;;;;19.89;59.31;98851.19;2084714;28;20485;-49
2022/04/17 02:20:35;;;;;;;;;;;;;;;19.88;59.13;98861.13;2081159;28;20781;-48
2022/04/17 02:21:37;;;;;;;;;;;;;;;19.86;59.27;98847.88;2079355;28;20017;-49
2022/04/17 02:22:39;;;;;;;;;;;;;;;19.86;59.68;98858.66;2085383;28;20030;-50
2022/04/17 02:23:42;;;;;;;;;;;;;;;19.86;59.42;98849.72;2087567;28;20275;-51
2022/04/17 02:24:42;;;;;;;;;;;;;;;19.86;59.60;98855.97;2083463;28;20023;-49
2022/04/17 02:25:44;;;;;;;;;;;;;;;19.85;59.40;98854.28;2085887;28;20796;-49
2022/04/17 02:26:45;;;;;;;;;;;;;;;19.85;59.37;98859.66;2083884;28;19925;-50
2022/04/17 02:27:46;;;;;;;;;;;;;;;19.84;59.61;98857.19;2082894;28;19920;-50
2022/04/17 02:28:47;;;;;;;;;;;;;;;19.83;59.50;98856.34;2081848;28;20020;-49
2022/04/17 02:29:48;;;;;;;;;;;;;;;19.84;59.22;98862.59;2081441;28;20022;-52
2022/04/17 02:30:49;;;;;;;;;;;;;;;19.84;59.31;98852.63;2081717;28;19928;-48
2022/04/17 02:31:50;;;;;;;;;;;;;;;19.84;59.25;98855.34;2085101;28;19928;-51
2022/04/17 02:32:51;;;;;;;;;;;;;;;19.83;59.45;98845.59;2087463;28;19924;-51
2022/04/17 02:33:52;;;;;;;;;;;;;;;19.82;59.43;98843.94;2084063;28;19932;-49
2022/04/17 02:34:54;;;;;;;;;;;;;;;19.82;59.64;98843.94;2081366;28;19962;-51
2022/04/17 02:35:54;;;;;;;;;;;;;;;19.81;59.64;98858.44;2081621;28;19929;-49
2022/04/17 02:36:56;;;;;;;;;;;;;;;19.81;59.56;98850.38;2087487;28;20471;-49
2022/04/17 02:37:58;;;;;;;;;;;;;;;19.82;59.32;98853.88;2081688;28;19931;-49
2022/04/17 02:38:59;;;;;;;;;;;;;;;19.81;59.47;98841.47;2078162;28;20012;-49
2022/04/17 02:40:00;;;;;;;;;;;;;;;19.82;59.34;98835.03;2084145;28;19932;-49
2022/04/17 02:41:01;;;;;;;;;;;;;;;19.81;59.60;98849.53;2087560;28;19923;-48
2022/04/17 02:42:02;;;;;;;;;;;;;;;19.80;59.36;98847.88;2082416;28;20003;-48
2022/04/17 02:43:04;;;;;;;;;;;;;;;19.81;59.17;98842.28;2084576;28;19935;-50
2022/04/17 02:44:06;;;;;;;;;;;;;;;19.80;59.51;98851.38;2087579;28;19920;-50
2022/04/17 02:45:07;;;;;;;;;;;;;;;19.80;59.42;98861.31;2086507;28;19932;-49
2022/04/17 02:46:08;;;;;;;;;;;;;;;19.79;59.26;98846.22;2082527;28;19991;-50
2022/04/17 02:48:28;;;;;;;;;;;;;;;19.77;59.29;98854.50;2084815;28;19925;-51
2022/04/17 02:49:29;;;;;;;;;;;;;;;19.78;59.46;98858.84;2082844;28;19967;-49
2022/04/17 02:50:30;;;;;;;;;;;;;;;19.77;59.64;98851.78;2086695;28;19931;-48
2022/04/17 02:51:33;;;;;;;;;;;;;;;19.76;59.55;98850.16;2082228;28;20301;-49
2022/04/17 02:52:33;;;;;;;;;;;;;;;19.74;59.62;98852.22;2079942;28;19924;-51
2022/04/17 02:53:36;;;;;;;;;;;;;;;19.75;59.34;98859.28;2083517;28;20725;-53
2022/04/17 02:54:38;;;;;;;;;;;;;;;19.77;59.41;98851.78;2084646;28;19931;-51
2022/04/17 02:55:40;;;;;;;;;;;;;;;19.75;59.20;98853.88;2085845;28;19958;-49
2022/04/17 02:56:40;;;;;;;;;;;;;;;19.77;59.14;98843.72;2084575;28;19924;-51
2022/04/17 02:57:43;;;;;;;;;;;;;;;19.77;59.46;98846.41;2084854;28;19921;-51
2022/04/17 02:58:44;;;;;;;;;;;;;;;19.74;59.35;98846.00;2086959;28;19931;-49
2022/04/17 02:59:45;;;;;;;;;;;;;;;19.75;59.41;98848.50;2082035;28;20070;-50
2022/04/17 03:06:03;;;;;;;;;;;;;;;19.73;59.46;98855.13;2085459;28;19920;-51
2022/04/17 03:07:04;;;;;;;;;;;;;;;19.73;59.23;98849.75;2087497;28;19924;-48
2022/04/17 03:08:07;;;;;;;;;;;;;;;19.72;59.29;98846.19;2080802;28;19929;-50
2022/04/17 03:09:09;;;;;;;;;;;;;;;19.72;59.57;98842.69;2082960;28;19925;-48
2022/04/17 03:10:11;;;;;;;;;;;;;;;19.71;59.51;98852.63;2087054;28;20000;-53
2022/04/17 03:11:11;;;;;;;;;;;;;;;19.72;59.19;98850.75;2082021;28;19924;-50
2022/04/17 03:12:13;;;;;;;;;;;;;;;19.72;59.21;98842.69;2085671;28;19921;-51
2022/04/17 03:13:16;;;;;;;;;;;;;;;19.71;59.54;98841.03;2079485;28;19921;-50
2022/04/17 03:14:16;;;;;;;;;;;;;;;19.71;59.36;98849.94;2086690;28;20523;-49
2022/04/17 03:15:18;;;;;;;;;;;;;;;19.73;59.47;98847.88;2083320;28;19934;-50
2022/04/17 03:16:18;;;;;;;;;;;;;;;19.71;59.26;98858.00;2087366;28;19948;-49
2022/04/17 03:17:20;;;;;;;;;;;;;;;19.71;59.53;98849.09;2085453;28;19920;-49
2022/04/17 03:18:20;;;;;;;;;;;;;;;19.69;59.56;98841.22;2083872;28;19925;-49
2022/04/17 03:19:22;;;;;;;;;;;;;;;19.68;59.49;98847.66;2086101;28;20512;-51
2022/04/17 03:20:22;;;;;;;;;;;;;;;19.69;59.22;98846.59;2084396;28;20030;-51
2022/04/17 03:21:24;;;;;;;;;;;;;;;19.69;59.48;98852.00;2082340;28;19929;-49
2022/04/17 03:22:25;;;;;;;;;;;;;;;19.69;59.35;98849.31;2085702;28;19963;-49
2022/04/17 03:23:27;;;;;;;;;;;;;;;19.70;59.44;98844.78;2083316;28;19932;-49
2022/04/17 03:24:29;;;;;;;;;;;;;;;19.68;59.44;98854.91;2088466;28;20469;-49
2022/04/17 03:25:30;;;;;;;;;;;;;;;19.68;59.49;98841.44;2087374;28;19936;-47
2022/04/17 03:26:32;;;;;;;;;;;;;;;19.70;59.48;98852.84;2086762;28;19921;-49
2022/04/17 03:27:34;;;;;;;;;;;;;;;19.69;59.38;98853.88;2084362;28;19928;-50
2022/04/17 03:28:34;;;;;;;;;;;;;;;19.67;59.30;98851.41;2086960;28;20094;-49
2022/04/17 03:29:36;;;;;;;;;;;;;;;19.67;59.19;98846.00;2085858;28;20057;-48
2022/04/17 03:30:36;;;;;;;;;;;;;;;19.68;59.27;98852.22;2084580;28;19936;-51
2022/04/17 03:31:38;;;;;;;;;;;;;;;19.68;59.18;98844.16;2085729;28;20397;-54
2022/04/17 03:32:38;;;;;;;;;;;;;;;19.69;59.27;98852.00;2087205;28;19931;-50
2022/04/17 03:33:40;;;;;;;;;;;;;;;19.67;59.42;98856.78;2080871;28;20435;-50
2022/04/17 03:34:41;;;;;;;;;;;;;;;19.68;59.10;98855.72;2085158;28;19925;-49
2022/04/17 03:35:42;;;;;;;;;;;;;;;19.68;59.40;98858.41;2082493;28;20272;-52
2022/04/17 03:36:44;;;;;;;;;;;;;;;19.68;59.32;98847.66;2087363;28;19924;-50
2022/04/17 03:37:45;;;;;;;;;;;;;;;19.67;59.38;98846.00;2083199;28;19929;-52
2022/04/17 03:38:46;;;;;;;;;;;;;;;19.67;59.08;98850.53;2084036;28;20366;-50
2022/04/17 03:39:48;;;;;;;;;;;;;;;19.67;59.26;98846.00;2083688;28;19966;-49
2022/04/17 03:40:50;;;;;;;;;;;;;;;19.66;59.43;98848.91;2082935;28;19960;-49
2022/04/17 03:41:50;;;;;;;;;;;;;;;19.66;59.36;98849.72;2087379;28;19924;-51
2022/04/17 03:42:52;;;;;;;;;;;;;;;19.66;59.33;98847.03;2084660;28;19924;-51
2022/04/17 03:43:53;;;;;;;;;;;;;;;19.67;59.29;98839.78;2085146;28;19929;-49
2022/04/17 03:44:54;;;;;;;;;;;;;;;19.65;59.17;98845.34;2088213;28;20481;-49
2022/04/17 03:45:55;;;;;;;;;;;;;;;19.64;59.35;98841.00;2085214;28;19924;-52
2022/04/17 03:46:56;;;;;;;;;;;;;;;19.66;59.09;98844.34;2084921;28;19956;-49
2022/04/17 03:47:58;;;;;;;;;;;;;;;19.65;59.04;98839.97;2087605;28;19973;-48
2022/04/17 03:49:00;;;;;;;;;;;;;;;19.66;59.23;98841.66;2087070;28;19925;-52
2022/04/17 03:50:00;;;;;;;;;;;;;;;19.64;59.09;98832.94;2088643;28;19939;-50
2022/04/17 03:51:02;;;;;;;;;;;;;;;19.64;59.26;98844.53;2087071;28;20023;-50
2022/04/17 03:52:03;;;;;;;;;;;;;;;19.64;59.23;98841.00;2085732;28;19981;-51
2022/04/17 03:53:05;;;;;;;;;;;;;;;19.62;59.14;98837.69;2086890;28;19982;-48
2022/04/17 03:54:05;;;;;;;;;;;;;;;19.63;59.29;98842.03;2086234;28;19960;-49
2022/04/17 03:55:09;;;;;;;;;;;;;;;19.63;59.03;98839.34;2083708;28;19932;-50
2022/04/17 03:56:10;;;;;;;;;;;;;;;19.64;58.94;98832.94;2085174;28;19920;-50
2022/04/17 03:57:12;;;;;;;;;;;;;;;19.63;59.11;98840.16;2085943;28;19924;-52
2022/04/17 03:58:12;;;;;;;;;;;;;;;19.63;59.31;98832.09;2087857;28;19921;-49
2022/04/17 03:59:14;;;;;;;;;;;;;;;19.60;59.32;98829.81;2084369;28;20143;-51
2022/04/17 04:00:16;;;;;;;;;;;;;;;19.61;59.14;98839.56;2085071;28;20215;-49
2022/04/17 04:01:17;;;;;;;;;;;;;;;19.62;59.19;98835.00;2085778;28;19995;-48
2022/04/17 04:02:18;;;;;;;;;;;;;;;19.61;59.22;98847.63;2085026;28;19921;-49
2022/04/17 04:03:20;;;;;;;;;;;;;;;19.61;59.08;98849.47;2082600;28;20000;-50
2022/04/17 04:04:21;;;;;;;;;;;;;;;19.62;59.02;98840.38;2082961;28;19929;-49
2022/04/17 04:05:22;;;;;;;;;;;;;;;19.60;59.19;98845.13;2083402;28;20649;-51
2022/04/17 04:06:23;;;;;;;;;;;;;;;19.62;59.24;98845.75;2085883;28;20020;-51
2022/04/17 04:07:24;;;;;;;;;;;;;;;19.60;59.14;98842.44;2084948;28;19929;-50
2022/04/17 04:08:26;;;;;;;;;;;;;;;19.60;59.28;98837.06;2088800;28;20373;-48
2022/04/17 04:09:27;;;;;;;;;;;;;;;19.59;59.15;98835.41;2085310;28;19925;-50
2022/04/17 04:10:29;;;;;;;;;;;;;;;19.59;59.24;98838.09;2085082;28;19928;-48
2022/04/17 04:11:31;;;;;;;;;;;;;;;19.59;59.29;98830.03;2082430;28;20380;-50
2022/04/17 04:12:31;;;;;;;;;;;;;;;19.58;59.19;98829.19;2085642;28;20459;-49
2022/04/17 04:13:33;;;;;;;;;;;;;;;19.58;58.91;98831.03;2085353;28;19931;-53
2022/04/17 04:14:34;;;;;;;;;;;;;;;19.57;59.17;98835.59;2088320;28;19921;-50
2022/04/17 04:15:35;;;;;;;;;;;;;;;19.56;59.09;98839.34;2071817;28;20798;-49
2022/04/17 04:16:36;;;;;;;;;;;;;;;19.58;58.90;98822.97;2078058;28;19932;-48
2022/04/17 04:17:37;;;;;;;;;;;;;;;19.59;58.86;98830.84;2083058;28;19924;-50
2022/04/17 04:18:38;;;;;;;;;;;;;;;19.58;58.89;98831.88;2085503;28;19920;-50
2022/04/17 04:19:39;;;;;;;;;;;;;;;19.58;59.05;98831.03;2087540;28;19925;-48
2022/04/17 04:20:40;;;;;;;;;;;;;;;19.57;58.88;98824.03;2080224;28;19967;-49
2022/04/17 04:21:48;;;;;;;;;;;;;;;19.57;59.02;98819.47;2083964;28;20292;-51
2022/04/17 04:22:48;;;;;;;;;;;;;;;19.56;59.31;98817.00;2087264;28;19924;-49
2022/04/17 04:23:50;;;;;;;;;;;;;;;19.56;58.88;98825.06;2084953;28;19964;-51
2022/04/17 04:24:50;;;;;;;;;;;;;;;19.57;59.22;98824.03;2083596;28;19965;-50
2022/04/17 04:25:53;;;;;;;;;;;;;;;19.56;58.85;98827.75;2084307;28;19974;-51
2022/04/17 04:29:28;;;;;;;;;;;;;;;19.54;58.94;98816.38;2084410;28;19924;-51
2022/04/17 04:30:30;;;;;;;;;;;;;;;19.55;58.89;98826.06;2085424;28;19928;-49
2022/04/17 04:31:30;;;;;;;;;;;;;;;19.55;58.84;98826.91;2085493;28;20047;-49
2022/04/17 04:32:32;;;;;;;;;;;;;;;19.55;59.11;98815.31;2085488;28;19936;-48
2022/04/17 04:33:32;;;;;;;;;;;;;;;19.54;58.91;98824.44;2083878;28;19920;-53
2022/04/17 04:34:34;;;;;;;;;;;;;;;19.54;59.01;98829.81;2087341;28;19930;-51
2022/04/17 04:35:35;;;;;;;;;;;;;;;19.53;59.11;98820.91;2084305;28;19978;-50
2022/04/17 04:36:36;;;;;;;;;;;;;;;19.53;58.80;98818.22;2084659;28;19932;-48
2022/04/17 04:37:37;;;;;;;;;;;;;;;19.53;59.18;98823.59;2085028;28;19920;-48
2022/04/17 04:38:39;;;;;;;;;;;;;;;19.55;58.80;98829.59;2084133;28;20672;-51
2022/04/17 04:39:40;;;;;;;;;;;;;;;19.54;59.08;98822.56;2084326;28;20006;-51
2022/04/17 04:40:42;;;;;;;;;;;;;;;19.52;59.11;98821.94;2085351;28;19925;-52
2022/04/17 04:41:44;;;;;;;;;;;;;;;19.52;58.86;98821.09;2084544;28;19993;-50
2022/04/17 04:42:46;;;;;;;;;;;;;;;19.52;58.70;98821.09;2088286;28;19967;-48
2022/04/17 04:43:47;;;;;;;;;;;;;;;19.53;59.03;98825.44;2085783;28;19927;-49
2022/04/17 04:46:06;;;;;;;;;;;;;;;19.51;58.99;98816.78;2081871;28;19947;-49
2022/04/17 04:46:09;;;;;;;;;;;;;;;19.54;58.78;98817.19;2083980;28;19928;-51
2022/04/17 04:47:10;;;;;;;;;;;;;;;19.54;58.95;98810.97;2079581;28;19927;-47
2022/04/17 04:48:11;;;;;;;;;;;;;;;19.53;58.58;98812.00;2086346;28;19924;-48
2022/04/17 04:49:30;;;;;;;;;;;;;;;19.52;58.75;98821.09;2079099;28;20668;-50
2022/04/17 04:50:31;;;;;;;;;;;;;;;19.51;58.97;98814.09;2089745;28;19935;-51
2022/04/17 04:51:32;;;;;;;;;;;;;;;19.50;59.00;98817.78;2082669;28;19931;-49
2022/04/17 04:52:35;;;;;;;;;;;;;;;19.49;58.99;98816.97;2083362;28;19986;-55
2022/04/17 04:53:36;;;;;;;;;;;;;;;19.51;58.95;98817.59;2088510;28;20084;-51
2022/04/17 04:54:37;;;;;;;;;;;;;;;19.51;59.11;98830.22;2088839;28;19931;-50
2022/04/17 04:55:38;;;;;;;;;;;;;;;19.48;59.09;98814.50;2085990;28;19920;-52
2022/04/17 04:56:39;;;;;;;;;;;;;;;19.48;58.98;98820.69;2089147;28;19930;-50
2022/04/17 04:57:41;;;;;;;;;;;;;;;19.50;58.86;98823.16;2082869;28;19920;-50
2022/04/17 04:58:43;;;;;;;;;;;;;;;19.52;58.95;98821.09;2089043;28;19925;-48
2022/04/17 04:59:44;;;;;;;;;;;;;;;19.51;58.76;98816.78;2088469;28;19921;-49
2022/04/17 05:00:45;;;;;;;;;;;;;;;19.51;58.83;98825.66;2087608;28;19987;-52
2022/04/17 05:01:47;;;;;;;;;;;;;;;19.51;59.11;98819.47;2091065;28;19970;-51
2022/04/17 05:02:48;;;;;;;;;;;;;;;19.50;59.21;98825.84;2087594;28;19967;-50
2022/04/17 05:03:49;;;;;;;;;;;;;;;19.48;58.81;98825.25;2086020;28;19925;-48
2022/04/17 05:04:50;;;;;;;;;;;;;;;19.47;58.92;98823.56;2090498;28;19920;-48
2022/04/17 05:05:51;;;;;;;;;;;;;;;19.46;59.17;98816.56;2086403;28;19955;-49
2022/04/17 05:06:52;;;;;;;;;;;;;;;19.48;58.84;98814.50;2085387;28;20338;-50
2022/04/17 05:07:53;;;;;;;;;;;;;;;19.47;59.10;98820.88;2088480;28;19932;-48
2022/04/17 05:08:54;;;;;;;;;;;;;;;19.46;58.90;98816.56;2088323;28;19920;-48
2022/04/17 05:09:56;;;;;;;;;;;;;;;19.47;59.07;98815.50;2086358;28;20004;-49
2022/04/17 05:10:56;;;;;;;;;;;;;;;19.46;59.11;98814.69;2084701;28;19920;-49
2022/04/17 05:11:58;;;;;;;;;;;;;;;19.45;59.08;98815.72;2090162;28;20022;-50
2022/04/17 05:13:00;;;;;;;;;;;;;;;19.47;58.80;98820.88;2087689;28;19931;-49
2022/04/17 05:14:01;;;;;;;;;;;;;;;19.46;58.92;98811.16;2086975;28;19963;-50
2022/04/17 05:15:03;;;;;;;;;;;;;;;19.47;59.18;98813.63;2087268;28;20003;-50
2022/04/17 05:16:05;;;;;;;;;;;;;;;19.48;58.79;98809.13;2086337;28;19982;-49
2022/04/17 05:17:05;;;;;;;;;;;;;;;19.47;58.99;98810.13;2089357;28;19936;-51
2022/04/17 05:18:07;;;;;;;;;;;;;;;19.47;58.88;98805.56;2085519;28;19962;-49
2022/04/17 05:19:20;;;;;;;;;;;;;;;19.47;58.80;98810.94;2085326;28;19924;-50
2022/04/17 05:20:22;;;;;;;;;;;;;;;19.48;58.83;98809.13;2086822;28;19928;-50
2022/04/17 05:21:31;;;;;;;;;;;;;;;19.46;58.74;98805.78;2087838;28;19992;-51
2022/04/17 05:22:33;;;;;;;;;;;;;;;19.46;58.67;98811.16;2088127;28;19928;-51
2022/04/17 05:23:36;;;;;;;;;;;;;;;19.45;58.94;98812.22;2088246;28;19943;-49
2022/04/17 05:24:38;;;;;;;;;;;;;;;19.47;58.88;98815.50;2085681;28;19924;-49
2022/04/17 05:25:39;;;;;;;;;;;;;;;19.43;58.96;98813.22;2090819;28;19959;-51
2022/04/17 05:26:40;;;;;;;;;;;;;;;19.45;58.71;98812.22;2086140;28;19994;-50
2022/04/17 05:27:41;;;;;;;;;;;;;;;19.45;58.54;98809.53;2090649;28;19920;-47
2022/04/17 05:28:44;;;;;;;;;;;;;;;19.49;58.44;98816.13;2080480;28;19931;-52
2022/04/17 05:29:44;;;;;;;;;;;;;;;19.45;58.85;98804.16;2084699;28;20022;-49
2022/04/17 05:30:46;;;;;;;;;;;;;;;19.43;58.80;98805.16;2086145;28;19924;-50
2022/04/17 05:31:47;;;;;;;;;;;;;;;19.42;58.69;98811.59;2089682;28;19924;-49
2022/04/17 05:32:49;;;;;;;;;;;;;;;19.43;58.78;98813.22;2081398;28;19985;-52
2022/04/17 05:33:50;;;;;;;;;;;;;;;19.45;58.62;98813.03;2084810;28;19920;-50